Time;durP1;ratioP1;P1;durP2;ratioP2;P2;SDS_P1;SDS_P2;PMS_P1;PMS_P2;Temp;Humidity;BMP_temperature;BMP_pressure;BME280_temperature;BME280_humidity;BME280_pressure;Samples;Min_cycle;Max_cycle;Signal;HPM_P1;HPM_P2
2022/05/02 00:08:38;;;;;;;8.40;4.53;;;;;;;13.64;38.75;97979.00;12701036;23;20030;-81
2022/05/02 00:13:59;;;;;;;8.68;4.43;;;;;;;13.63;38.83;97971.19;12685023;23;20018;-80
2022/05/02 00:19:20;;;;;;;6.40;3.75;;;;;;;13.63;38.75;97974.00;12704150;23;20025;-80
2022/05/02 00:24:42;;;;;;;7.55;4.20;;;;;;;13.68;38.80;97978.50;12725233;23;20043;-80
2022/05/02 00:30:04;;;;;;;7.85;4.03;;;;;;;13.63;38.92;97985.94;12684625;23;20026;-81
2022/05/02 00:35:25;;;;;;;10.60;4.70;;;;;;;13.63;39.36;97985.22;12685662;23;20022;-81
2022/05/02 00:40:46;;;;;;;7.10;4.45;;;;;;;13.64;39.51;97979.00;12691469;23;20053;-81
2022/05/02 00:46:21;;;;;;;9.90;4.43;;;;;;;13.64;39.46;97984.59;12709910;23;20022;-81
2022/05/02 00:51:42;;;;;;;6.72;4.13;;;;;;;13.61;39.39;97979.50;12650277;23;20073;-80
2022/05/02 00:57:06;;;;;;;7.20;4.07;;;;;;;13.56;39.52;97978.50;12708918;23;20045;-79
2022/05/02 01:02:26;;;;;;;9.50;4.43;;;;;;;13.55;39.60;97976.31;12690535;23;20041;-80
2022/05/02 01:07:47;;;;;;;10.65;3.95;;;;;;;13.55;39.73;97973.50;12670148;23;20045;-81
2022/05/02 01:13:08;;;;;;;5.20;3.88;;;;;;;13.53;39.84;97968.53;12709833;23;20014;-81
2022/05/02 01:18:29;;;;;;;9.70;4.72;;;;;;;13.51;39.96;97965.59;12710096;23;20065;-81
2022/05/02 01:23:54;;;;;;;6.45;4.43;;;;;;;13.44;40.22;97956.09;12710505;23;20018;-81
2022/05/02 01:29:15;;;;;;;8.07;3.80;;;;;;;13.42;40.30;97958.78;12710485;23;20061;-82
2022/05/02 01:34:36;;;;;;;5.50;3.90;;;;;;;13.35;40.58;97956.94;12688921;23;20103;-80
2022/05/02 01:39:57;;;;;;;6.90;4.10;;;;;;;13.33;40.81;97962.44;12688282;23;20029;-80
2022/05/02 01:45:18;;;;;;;7.10;4.28;;;;;;;13.30;40.79;97955.22;12749273;23;20018;-81
2022/05/02 01:50:39;;;;;;;7.35;4.03;;;;;;;13.32;40.96;97960.25;12687397;23;20044;-81
2022/05/02 01:55:59;;;;;;;7.93;4.20;;;;;;;13.28;41.23;97959.97;12707233;23;20014;-81
2022/05/02 02:01:21;;;;;;;6.88;3.95;;;;;;;13.22;41.42;97956.81;12666803;23;20032;-81
2022/05/02 02:06:42;;;;;;;8.20;4.18;;;;;;;13.17;41.49;97955.81;12707202;23;20063;-80
2022/05/02 02:12:03;;;;;;;5.95;3.97;;;;;;;13.10;41.43;97963.13;12689714;23;20069;-79
2022/05/02 02:17:24;;;;;;;7.90;4.07;;;;;;;13.05;41.75;97955.81;12686917;23;20042;-80
2022/05/02 02:22:45;;;;;;;7.72;3.72;;;;;;;13.05;42.23;97957.88;12687121;23;20062;-79
2022/05/02 02:28:08;;;;;;;7.25;4.28;;;;;;;13.01;42.52;97949.22;12665902;23;20044;-80
2022/05/02 02:33:29;;;;;;;5.53;3.97;;;;;;;13.00;42.82;97948.47;12665707;23;20110;-81
2022/05/02 02:38:50;;;;;;;5.97;4.18;;;;;;;12.98;42.96;97951.16;12705346;23;20094;-81
2022/05/02 02:44:10;;;;;;;7.55;4.22;;;;;;;12.92;43.42;97944.44;12705364;23;20340;-81
2022/05/02 02:49:31;;;;;;;9.23;4.28;;;;;;;12.90;43.21;97940.19;12704527;23;20022;-80
2022/05/02 02:54:54;;;;;;;5.93;3.60;;;;;;;12.84;43.44;97934.22;12704741;23;20070;-79
2022/05/02 03:00:15;;;;;;;10.40;4.20;;;;;;;12.79;43.73;97929.69;12703814;23;20070;-79
2022/05/02 03:11:16;;;;;;;8.52;4.45;;;;;;;12.72;44.42;97924.31;12695191;23;20024;-80
2022/05/02 03:16:37;;;;;;;7.90;4.43;;;;;;;12.66;44.44;97927.50;12681863;23;20073;-81
2022/05/02 03:21:57;;;;;;;9.38;4.28;;;;;;;12.65;44.57;97923.25;12701650;23;20021;-82
2022/05/02 03:27:18;;;;;;;6.60;3.80;;;;;;;12.66;44.67;97930.28;12702285;23;20029;-81
2022/05/02 03:32:39;;;;;;;6.28;3.88;;;;;;;12.66;44.86;97930.28;12681836;23;20022;-81
2022/05/02 03:38:00;;;;;;;7.68;4.25;;;;;;;12.69;45.21;97931.16;12703496;23;20066;-80
2022/05/02 03:43:21;;;;;;;10.27;4.45;;;;;;;12.68;45.08;97930.41;12682092;23;20069;-81
2022/05/02 03:48:44;;;;;;;9.75;4.53;;;;;;;12.68;45.18;97924.81;12702921;23;20089;-80
2022/05/02 03:54:05;;;;;;;10.27;4.40;;;;;;;12.66;45.90;97933.09;12682423;23;20017;-81
2022/05/02 03:59:25;;;;;;;9.93;4.55;;;;;;;12.69;45.28;97928.34;12681406;23;20022;-81
2022/05/02 04:04:46;;;;;;;8.70;4.63;;;;;;;12.74;45.66;97932.84;12683227;23;20065;-81
2022/05/02 04:10:08;;;;;;;8.98;4.82;;;;;;;12.77;45.77;97926.06;12694627;23;20508;-80
2022/05/02 04:15:29;;;;;;;8.65;4.68;;;;;;;12.79;45.72;97928.97;12666458;23;20073;-81
2022/05/02 04:20:49;;;;;;;9.02;4.40;;;;;;;12.84;45.94;97937.03;12686911;23;20078;-81
2022/05/02 04:26:10;;;;;;;7.68;4.07;;;;;;;12.89;46.02;97952.72;12707032;23;20030;-81
2022/05/02 04:31:31;;;;;;;7.85;4.45;;;;;;;13.02;46.12;97953.47;12688671;23;20512;-81
2022/05/02 04:36:52;;;;;;;5.75;4.00;;;;;;;13.20;46.08;97959.50;12707452;23;20018;-81
2022/05/02 04:42:13;;;;;;;8.68;4.82;;;;;;;13.38;45.94;97969.72;12708137;23;20056;-80
2022/05/02 04:47:33;;;;;;;6.50;4.40;;;;;;;13.56;45.92;97966.56;12689611;23;20069;-79
2022/05/02 04:52:56;;;;;;;6.22;4.03;;;;;;;13.85;45.77;97969.69;12711203;23;20050;-80
2022/05/02 04:58:17;;;;;;;9.30;4.55;;;;;;;14.20;45.47;97966.78;12672478;23;20053;-80
2022/05/02 05:03:39;;;;;;;9.85;4.47;;;;;;;14.40;45.15;97963.66;12684927;23;20349;-75
2022/05/02 05:09:00;;;;;;;9.05;4.38;;;;;;;14.39;44.77;97960.13;12694619;23;20018;-78
2022/05/02 05:20:32;;;;;;;8.45;4.60;;;;;;;14.31;44.87;97966.03;12695839;23;20025;-78
2022/05/02 05:26:29;;;;;;;8.15;4.78;;;;;;;14.38;44.93;97961.47;12677832;23;20018;-78
2022/05/02 05:32:10;;;;;;;7.03;4.35;;;;;;;14.44;44.67;97961.06;12680848;23;20017;-78
2022/05/02 05:37:40;;;;;;;13.45;5.97;;;;;;;14.55;44.68;97958.22;12658657;23;20439;-78
2022/05/02 05:43:25;;;;;;;20.27;6.40;;;;;;;14.79;44.57;97966.56;12699319;23;20018;-78
2022/05/02 05:49:09;;;;;;;9.10;5.10;;;;;;;14.81;44.33;97961.03;12700492;23;20041;-78
2022/05/02 05:54:59;;;;;;;11.38;5.40;;;;;;;14.76;44.28;97962.16;12677561;23;20018;-78
2022/05/02 06:00:19;;;;;;;7.60;4.40;;;;;;;14.80;44.53;97959.59;12677048;23;20026;-78
2022/05/02 06:05:41;;;;;;;9.30;5.07;;;;;;;14.88;44.24;97960.75;12683056;23;20025;-78
2022/05/02 06:11:05;;;;;;;9.30;5.13;;;;;;;15.19;44.27;97953.94;12686324;23;20381;-78
2022/05/02 06:22:07;;;;;;;8.45;6.55;;;;;;;16.03;43.21;97954.06;12647459;23;20026;-76
2022/05/02 06:27:28;;;;;;;13.00;6.30;;;;;;;16.56;42.71;97965.03;12634934;23;20334;-81
2022/05/02 06:32:50;;;;;;;13.32;6.47;;;;;;;18.46;41.63;97962.81;12656256;23;20018;-81
2022/05/02 06:38:28;;;;;;;13.73;8.33;;;;;;;18.92;39.57;97971.69;12656989;23;20433;-81
2022/05/02 06:44:12;;;;;;;10.57;7.03;;;;;;;19.40;38.20;97980.53;12638529;23;20029;-82
2022/05/02 06:49:34;;;;;;;11.77;7.00;;;;;;;19.23;38.49;97981.31;12656499;23;20025;-82
2022/05/02 06:55:15;;;;;;;11.93;6.88;;;;;;;18.48;38.53;97971.34;12677277;23;20021;-82
2022/05/02 07:00:47;;;;;;;16.88;8.00;;;;;;;18.33;38.99;97972.13;12698434;23;20021;-82
2022/05/02 07:06:27;;;;;;;13.02;7.03;;;;;;;18.90;38.73;97971.59;12599200;23;20329;-82
2022/05/02 07:12:06;;;;;;;12.13;6.60;;;;;;;19.39;38.12;97979.06;12617984;23;20017;-82
2022/05/02 07:17:42;;;;;;;9.80;6.15;;;;;;;19.77;37.78;97974.09;12637178;23;20022;-81
2022/05/02 07:23:17;;;;;;;9.93;5.75;;;;;;;20.44;36.86;97970.69;12676073;23;20017;-81
2022/05/02 07:28:46;;;;;;;8.57;6.03;;;;;;;21.99;34.45;97980.94;12635937;23;20041;-80
2022/05/02 07:34:07;;;;;;;9.02;5.57;;;;;;;25.98;32.73;97984.84;12656758;23;20330;-75
2022/05/02 07:39:28;;;;;;;12.50;5.93;;;;;;;26.99;28.30;97982.84;12656041;23;20022;-78
2022/05/02 07:44:51;;;;;;;11.23;5.30;;;;;;;28.22;26.82;97986.94;12656161;23;20017;-78
2022/05/02 07:50:12;;;;;;;11.65;5.93;;;;;;;31.08;24.40;97984.34;12659775;23;20045;-80
2022/05/02 07:55:34;;;;;;;8.05;5.20;;;;;;;35.82;18.88;97983.03;12620146;23;20022;-80
2022/05/02 08:00:54;;;;;;;6.43;5.03;;;;;;;38.33;16.23;97987.47;12659395;23;20021;-80
2022/05/02 08:06:24;;;;;;;9.02;5.15;;;;;;;36.59;15.07;97980.66;12640220;23;20018;-80
2022/05/02 08:11:58;;;;;;;7.80;5.60;;;;;;;31.61;16.69;97983.78;12664690;23;20092;-80
2022/05/02 08:17:41;;;;;;;8.05;5.50;;;;;;;27.91;19.42;97981.16;12679535;23;20018;-81
2022/05/02 08:29:29;;;;;;;9.32;5.28;;;;;;;30.20;18.89;97981.47;12646148;23;20365;-82
2022/05/02 08:35:22;;;;;;;9.20;5.28;;;;;;;37.00;15.17;97984.41;12638748;23;20022;-80
2022/05/02 08:41:04;;;;;;;6.93;4.07;;;;;;;38.97;10.69;97985.56;12611824;23;20337;-79
2022/05/02 08:46:37;;;;;;;4.85;3.97;;;;;;;41.29;10.24;97976.84;12639281;23;20013;-82
2022/05/02 08:52:35;;;;;;;6.85;4.38;;;;;;;41.40;9.03;97978.41;12659560;23;20018;-81
2022/05/02 08:58:49;;;;;;;5.90;3.90;;;;;;;41.88;8.91;97967.78;12658505;23;20023;-82
2022/05/02 09:04:19;;;;;;;5.78;4.22;;;;;;;37.69;11.01;97961.53;12602377;23;20021;-81
2022/05/02 09:10:06;;;;;;;6.25;4.57;;;;;;;38.27;11.49;97964.41;12659103;23;20018;-82
2022/05/02 09:15:46;;;;;;;9.52;4.35;;;;;;;41.34;8.93;97969.25;12638901;23;20018;-78
2022/05/02 09:21:40;;;;;;;6.60;3.95;;;;;;;43.12;8.33;97966.53;12637767;23;20017;-78
2022/05/02 09:27:29;;;;;;;7.40;3.90;;;;;;;45.43;6.93;97961.13;12619676;23;20052;-79
2022/05/02 09:33:17;;;;;;;5.97;4.03;;;;;;;41.08;8.90;97948.59;12642871;23;20031;-79
2022/05/02 09:39:15;;;;;;;12.53;4.60;;;;;;;39.16;10.51;97950.50;12658203;23;20017;-78
2022/05/02 09:50:48;;;;;;;8.00;3.97;;;;;;;42.98;8.96;97938.06;12633489;23;20349;-79
2022/05/02 09:56:43;;;;;;;8.18;3.55;;;;;;;46.31;7.00;97935.56;12640416;23;20310;-79
2022/05/02 10:02:25;;;;;;;3.28;2.53;;;;;;;49.32;5.35;97930.59;12621771;23;20038;-79
2022/05/02 10:08:45;;;;;;;4.43;2.00;;;;;;;45.17;5.99;97922.41;12659099;23;20050;-80
2022/05/02 10:14:43;;;;;;;2.25;2.03;;;;;;;45.98;6.82;97912.97;12663066;23;20025;-80
2022/05/02 10:20:04;;;;;;;3.35;1.88;;;;;;;49.29;5.36;97903.41;12638204;23;20065;-80
2022/05/02 10:25:35;;;;;;;3.65;2.65;;;;;;;50.11;4.95;97897.56;12656637;23;20022;-80
2022/05/02 10:31:04;;;;;;;3.25;1.80;;;;;;;51.64;3.78;97898.03;12598072;23;20372;-80
2022/05/02 10:36:43;;;;;;;4.30;2.10;;;;;;;51.87;3.09;97875.00;12636073;23;20081;-80
2022/05/02 10:42:06;;;;;;;5.30;1.83;;;;;;;51.74;3.15;97872.53;12614526;23;20080;-80
2022/05/02 10:47:41;;;;;;;4.47;1.63;;;;;;;49.22;4.43;97872.91;12617665;23;20449;-79
2022/05/02 10:53:37;;;;;;;4.97;2.70;;;;;;;48.01;4.34;97863.97;12619938;23;20057;-78
2022/05/02 10:59:01;;;;;;;4.15;2.17;;;;;;;44.91;5.44;97863.84;12571090;23;20029;-79
2022/05/02 11:04:28;;;;;;;6.07;2.83;;;;;;;40.77;6.94;97849.28;12616403;23;20028;-78
2022/05/02 11:10:03;;;;;;;7.32;2.97;;;;;;;37.13;9.39;97846.44;12656774;23;20021;-80
2022/05/02 11:15:25;;;;;;;6.28;2.67;;;;;;;36.19;10.37;97833.75;12636831;23;20469;-78
2022/05/02 11:21:08;;;;;;;6.57;4.03;;;;;;;34.91;12.77;97829.69;12637011;23;20022;-80
2022/05/02 11:26:44;;;;;;;6.88;3.55;;;;;;;32.68;13.91;97821.88;12656008;23;20046;-77
2022/05/02 11:32:09;;;;;;;5.43;3.95;;;;;;;32.00;14.22;97810.81;12636964;23;20435;-79
2022/05/02 11:37:55;;;;;;;7.35;3.35;;;;;;;31.91;15.60;97806.63;12596961;23;20018;-79
2022/05/02 11:43:23;;;;;;;7.75;3.08;;;;;;;30.20;15.28;97803.00;12634328;23;20045;-81
2022/05/02 11:49:24;;;;;;;5.38;3.50;;;;;;;27.75;18.11;97796.84;12616334;23;20515;-81
2022/05/02 11:54:52;;;;;;;4.85;3.33;;;;;;;26.76;18.68;97801.59;12620927;23;20022;-81
2022/05/02 12:00:16;;;;;;;3.17;2.05;;;;;;;27.34;18.78;97786.03;12615778;23;20040;-81
2022/05/02 12:05:46;;;;;;;3.83;2.10;;;;;;;28.00;18.85;97786.81;12619791;23;20430;-81
2022/05/02 12:11:08;;;;;;;2.97;2.20;;;;;;;27.61;19.12;97781.06;12644730;23;20018;-81
2022/05/02 12:16:33;;;;;;;3.75;2.90;;;;;;;27.35;18.93;97783.91;12655571;23;20036;-81
2022/05/02 12:21:56;;;;;;;4.57;2.53;;;;;;;27.43;18.85;97783.19;12635822;23;20053;-82
2022/05/02 12:27:17;;;;;;;;;;;;;;;27.18;19.28;97779.56;12656754;23;20018;-81
2022/05/02 12:32:38;;;;;;;5.57;3.00;;;;;;;26.60;19.31;97772.16;12655093;23;19921;-81
2022/05/02 12:38:06;;;;;;;4.63;2.20;;;;;;;26.31;20.25;97768.41;12658180;23;20306;-81
2022/05/02 12:43:39;;;;;;;5.45;2.17;;;;;;;25.97;20.20;97766.78;12639892;23;20025;-81
2022/05/02 12:49:04;;;;;;;6.57;2.72;;;;;;;25.63;20.06;97767.91;12600599;23;20021;-81
2022/05/02 12:54:26;;;;;;;3.13;1.52;;;;;;;25.58;20.81;97754.31;12639107;23;20092;-82
2022/05/02 13:05:40;;;;;;;2.40;1.70;;;;;;;26.59;20.66;97739.97;12650708;23;20020;-82
2022/05/02 13:11:09;;;;;;;2.38;1.60;;;;;;;26.71;19.84;97739.28;12646044;23;20429;-82
2022/05/02 13:16:41;;;;;;;4.15;1.60;;;;;;;26.91;20.10;97736.50;12638567;23;20018;-82
2022/05/02 13:22:02;;;;;;;7.53;1.80;;;;;;;26.96;20.28;97726.50;12620154;23;20337;-79
2022/05/02 13:27:32;;;;;;;2.80;1.50;;;;;;;26.95;20.31;97719.34;12657108;23;20624;-78
2022/05/02 13:33:06;;;;;;;4.45;2.40;;;;;;;27.30;19.78;97722.25;12637665;23;20022;-79
2022/05/02 13:38:27;;;;;;;2.25;1.40;;;;;;;26.64;19.84;97706.38;12619997;23;20025;-78
2022/05/02 13:43:58;;;;;;;7.03;1.83;;;;;;;26.07;20.35;97703.22;12637388;23;20053;-78
2022/05/02 13:49:25;;;;;;;2.85;1.60;;;;;;;25.97;20.38;97701.03;12659182;23;20028;-80
2022/05/02 13:54:54;;;;;;;3.03;1.75;;;;;;;25.70;20.34;97694.41;12657921;23;20030;-83
2022/05/02 14:11:18;;;;;;;5.55;1.38;;;;;;;24.65;21.82;97696.97;12650181;23;20436;-86
2022/05/02 14:16:41;;;;;;;2.72;1.52;;;;;;;25.18;21.72;97686.81;12657332;23;20022;-86
2022/05/02 14:22:05;;;;;;;4.43;1.50;;;;;;;25.48;21.48;97682.78;12656190;23;20014;-86
2022/05/02 14:27:29;;;;;;;4.72;1.50;;;;;;;25.80;21.37;97683.03;12637549;23;20314;-86
2022/05/02 14:32:50;;;;;;;2.92;1.52;;;;;;;26.17;21.29;97671.81;12637682;23;20022;-86
2022/05/02 14:38:14;;;;;;;3.90;1.90;;;;;;;24.90;21.94;97675.09;12656717;23;20018;-86
2022/05/02 14:43:35;;;;;;;3.40;1.90;;;;;;;24.48;22.23;97678.94;12657430;23;20025;-86
2022/05/02 14:48:56;;;;;;;5.05;1.50;;;;;;;24.11;22.57;97675.59;12637311;23;20050;-86
2022/05/02 14:54:17;;;;;;;2.88;1.48;;;;;;;23.84;22.98;97674.53;12636171;23;20041;-86
2022/05/02 14:59:38;;;;;;;2.22;1.38;;;;;;;23.57;23.56;97670.56;12615862;23;20018;-85
2022/05/02 15:05:03;;;;;;;4.65;1.65;;;;;;;23.43;23.32;97667.47;12619949;23;20047;-86
2022/05/02 15:10:51;;;;;;;3.22;1.50;;;;;;;23.59;23.62;97664.19;12616050;23;20028;-87
2022/05/02 15:16:23;;;;;;;2.38;1.33;;;;;;;23.54;23.77;97656.97;12657566;23;20022;-86
2022/05/02 15:22:06;;;;;;;3.60;1.83;;;;;;;23.63;23.55;97656.41;12616592;23;20022;-86
2022/05/02 15:39:00;;;;;;;4.28;2.00;;;;;;;23.65;24.23;97662.16;12657067;23;20449;-86
2022/05/02 15:44:25;;;;;;;3.67;1.90;;;;;;;23.74;24.58;97659.41;12614132;23;20307;-87
2022/05/02 15:49:57;;;;;;;3.60;1.85;;;;;;;23.63;24.89;97656.41;12633511;23;20349;-86
2022/05/02 15:55:19;;;;;;;;;;;;;;;23.55;25.63;97661.28;12653480;23;20029;-87
2022/05/02 16:00:59;;;;;;;4.38;2.55;;;;;;;23.12;25.50;97664.16;12653627;23;19921;-84
2022/05/02 16:06:21;;;;;;;2.83;1.98;;;;;;;22.86;25.79;97658.00;12636046;23;20061;-83
2022/05/02 16:11:43;;;;;;;4.47;2.22;;;;;;;22.87;25.96;97656.59;12621543;23;20465;-83
2022/05/02 16:17:06;;;;;;;4.03;1.77;;;;;;;22.73;26.17;97654.19;12637645;23;20018;-84
2022/05/02 16:22:27;;;;;;;4.90;2.10;;;;;;;22.52;26.80;97647.41;12658059;23;20014;-86
2022/05/02 16:27:51;;;;;;;2.63;1.73;;;;;;;22.40;26.33;97644.34;12637229;23;20428;-82
2022/05/02 16:33:19;;;;;;;3.85;2.15;;;;;;;22.19;26.68;97646.03;12658129;23;20014;-77
2022/05/02 16:38:44;;;;;;;3.58;2.38;;;;;;;22.05;26.66;97647.84;12659422;23;20018;-80
2022/05/02 16:44:05;;;;;;;6.07;2.22;;;;;;;21.71;27.61;97657.81;12660341;23;20425;-80
2022/05/02 16:49:25;;;;;;;5.05;1.83;;;;;;;20.90;28.99;97655.81;12639118;23;20337;-76
2022/05/02 16:54:47;;;;;;;3.78;1.77;;;;;;;20.18;30.57;97681.50;12639300;23;20333;-82
2022/05/02 17:00:11;;;;;;;7.82;1.75;;;;;;;19.47;31.65;97684.25;12659706;23;20018;-79
2022/05/02 17:05:42;;;;;;;3.72;1.65;;;;;;;19.30;33.43;97688.66;12634288;23;20025;-81
2022/05/02 17:11:06;;;;;;;5.95;1.88;;;;;;;18.94;34.74;97688.22;12622407;23;20018;-85
2022/05/02 17:16:29;;;;;;;7.13;2.47;;;;;;;18.64;36.49;97690.69;12620071;23;20070;-85
2022/05/02 17:22:03;;;;;;;4.43;2.00;;;;;;;18.44;38.60;97696.34;12658521;23;20644;-76
2022/05/02 17:27:27;;;;;;;3.22;1.90;;;;;;;18.20;38.85;97701.81;12639307;23;20014;-84
2022/05/02 17:32:52;;;;;;;3.03;1.77;;;;;;;18.11;38.53;97705.72;12639253;23;20018;-84
2022/05/02 17:38:15;;;;;;;3.92;1.65;;;;;;;18.01;39.29;97703.97;12617531;23;20037;-83
2022/05/02 17:43:36;;;;;;;4.97;2.15;;;;;;;18.02;40.27;97708.22;12657707;23;20022;-87
2022/05/02 17:48:56;;;;;;;7.47;4.13;;;;;;;18.18;40.92;97715.88;12637463;23;20433;-85
2022/05/02 17:54:17;;;;;;;7.90;4.68;;;;;;;18.28;40.46;97713.41;12657584;23;20013;-88
2022/05/02 17:59:38;;;;;;;5.63;3.25;;;;;;;18.39;40.63;97723.72;12657494;23;20022;-87
2022/05/02 18:04:58;;;;;;;7.10;3.70;;;;;;;18.31;41.94;97721.31;12637737;23;20351;-85
2022/05/02 18:10:24;;;;;;;6.10;3.28;;;;;;;18.15;42.42;97722.84;12638053;23;20022;-88
2022/05/02 18:15:51;;;;;;;6.88;3.63;;;;;;;17.94;43.61;97724.88;12638035;23;20022;-89
2022/05/02 18:21:15;;;;;;;5.50;3.70;;;;;;;17.73;45.37;97725.47;12657027;23;20341;-84
2022/05/02 18:26:36;;;;;;;6.30;3.85;;;;;;;17.59;45.27;97725.59;12617579;23;20022;-86
2022/05/02 18:31:57;;;;;;;4.68;3.40;;;;;;;17.50;45.75;97723.09;12657093;23;20377;-89
2022/05/02 18:37:18;;;;;;;5.05;3.42;;;;;;;17.51;47.13;97716.09;12637652;23;20022;-89
2022/05/02 18:42:39;;;;;;;6.07;4.30;;;;;;;17.48;46.28;97723.75;12616936;23;20029;-87
2022/05/02 18:53:39;;;;;;;5.32;3.65;;;;;;;17.33;46.50;97725.25;12644744;23;20434;-87
2022/05/02 18:59:01;;;;;;;5.60;3.58;;;;;;;17.35;47.06;97733.09;12656405;23;20028;-89
2022/05/02 19:04:22;;;;;;;4.00;3.13;;;;;;;17.31;47.20;97738.56;12666495;23;20342;-86
2022/05/02 19:09:44;;;;;;;5.25;3.63;;;;;;;17.20;47.46;97739.53;12649256;23;20018;-85
2022/05/02 19:15:08;;;;;;;4.70;3.42;;;;;;;17.05;47.74;97738.19;12617104;23;20017;-85
2022/05/02 19:20:34;;;;;;;5.65;3.30;;;;;;;16.94;48.81;97741.94;12637609;23;20025;-84
2022/05/02 19:25:55;;;;;;;5.10;3.45;;;;;;;16.86;48.73;97737.41;12636415;23;20033;-86
2022/05/02 19:31:24;;;;;;;5.20;3.50;;;;;;;16.75;49.02;97744.00;12636098;23;20018;-86
2022/05/02 19:42:54;;;;;;;4.20;2.58;;;;;;;16.59;49.66;97743.97;12662898;23;20026;-86
2022/05/02 19:48:15;;;;;;;4.70;2.88;;;;;;;16.60;49.99;97739.81;12640292;23;20018;-84
2022/05/02 19:53:38;;;;;;;3.30;2.65;;;;;;;16.56;49.96;97739.63;12639698;23;20024;-85
2022/05/02 19:58:59;;;;;;;4.63;3.00;;;;;;;16.53;50.06;97732.44;12640474;23;20068;-85
2022/05/02 20:04:20;;;;;;;4.40;2.70;;;;;;;16.52;50.26;97728.19;12649050;23;20084;-84
2022/05/02 20:09:41;;;;;;;4.55;2.65;;;;;;;16.49;50.44;97734.34;12659442;23;20021;-84
2022/05/02 20:15:02;;;;;;;3.42;2.75;;;;;;;16.50;50.79;97725.28;12658413;23;20018;-86
2022/05/02 20:20:23;;;;;;;3.97;2.88;;;;;;;16.50;50.54;97730.91;12659707;23;20069;-84
2022/05/02 20:25:44;;;;;;;4.00;3.05;;;;;;;16.51;50.90;97728.81;12639128;23;20014;-83
2022/05/02 20:31:05;;;;;;;7.20;5.60;;;;;;;16.50;50.89;97719.66;12637475;23;20018;-83
2022/05/02 20:36:44;;;;;;;3.70;2.92;;;;;;;16.47;50.78;97712.44;12638669;23;20081;-83
2022/05/02 20:42:08;;;;;;;5.30;3.20;;;;;;;16.34;50.97;97723.81;12601786;23;20029;-83
2022/05/02 20:47:54;;;;;;;3.33;3.00;;;;;;;16.23;51.63;97714.94;12656729;23;20341;-83
2022/05/02 20:53:15;;;;;;;5.20;3.53;;;;;;;16.23;51.57;97712.13;12635645;23;20022;-85
2022/05/02 20:58:36;;;;;;;5.43;3.63;;;;;;;16.27;51.85;97706.66;12658414;23;20024;-84
2022/05/02 21:03:58;;;;;;;4.70;3.47;;;;;;;16.31;51.91;97706.13;12650289;23;20021;-85
2022/05/02 21:09:38;;;;;;;6.10;4.07;;;;;;;16.35;52.03;97708.38;12601713;23;20081;-84
2022/05/02 21:15:34;;;;;;;6.95;4.57;;;;;;;16.28;52.48;97699.66;12642693;23;20040;-82
2022/05/02 21:21:28;;;;;;;21.00;16.80;;;;;;;16.23;53.99;97712.13;12697644;23;20037;-83
2022/05/02 21:27:02;;;;;;;6.32;5.07;;;;;;;16.13;53.46;97711.66;12659785;23;20051;-81
2022/05/02 21:32:30;;;;;;;9.93;4.80;;;;;;;16.19;53.37;97714.72;12635741;23;20385;-84
2022/05/02 21:38:06;;;;;;;8.60;6.70;;;;;;;16.09;53.78;97710.72;12643524;23;20500;-81
2022/05/02 21:43:27;;;;;;;9.05;6.05;;;;;;;16.03;54.34;97708.38;12617718;23;20025;-84
2022/05/02 21:49:03;;;;;;;7.85;5.80;;;;;;;15.97;54.60;97700.38;12583523;23;20441;-84
2022/05/02 21:54:25;;;;;;;8.50;5.45;;;;;;;16.00;55.62;97704.72;12578693;23;20029;-81
2022/05/02 21:59:45;;;;;;;8.02;6.60;;;;;;;15.89;55.37;97705.63;12578674;23;20018;-80
2022/05/02 22:05:07;;;;;;;7.90;6.00;;;;;;;15.79;54.99;97712.88;12560419;23;20019;-81
2022/05/02 22:10:28;;;;;;;7.68;5.32;;;;;;;15.79;55.57;97715.69;12538601;23;20015;-81
2022/05/02 22:16:01;;;;;;;6.65;4.85;;;;;;;15.70;55.76;97712.50;12600015;23;20441;-83
2022/05/02 22:21:23;;;;;;;7.55;5.05;;;;;;;15.68;56.21;97708.88;12577954;23;20018;-82
2022/05/02 22:26:57;;;;;;;7.85;5.18;;;;;;;15.56;56.27;97711.81;12625559;23;20445;-82
2022/05/02 22:32:29;;;;;;;5.85;4.60;;;;;;;15.57;56.74;97707.63;12624937;23;20026;-80
2022/05/02 22:37:49;;;;;;;6.38;4.95;;;;;;;15.52;57.05;97708.06;12641209;23;20022;-79
2022/05/02 22:43:23;;;;;;;6.03;5.13;;;;;;;15.50;57.20;97705.88;12587734;23;20446;-79
2022/05/02 22:48:44;;;;;;;6.93;4.95;;;;;;;15.51;56.85;97700.97;12602610;23;20073;-80
2022/05/02 22:54:05;;;;;;;6.22;5.13;;;;;;;15.49;57.45;97698.81;12599786;23;20023;-80
2022/05/02 22:59:34;;;;;;;6.80;5.40;;;;;;;15.38;57.69;97697.59;12604801;23;20026;-79
2022/05/02 23:05:15;;;;;;;6.93;5.15;;;;;;;15.28;57.92;97696.38;12607827;23;20105;-78
2022/05/02 23:10:37;;;;;;;8.32;5.57;;;;;;;15.23;58.38;97701.06;12596836;23;20018;-78
2022/05/02 23:16:11;;;;;;;6.55;5.47;;;;;;;15.19;58.00;97700.88;12662169;23;20452;-79
2022/05/02 23:21:32;;;;;;;6.60;5.47;;;;;;;15.15;58.58;97704.25;12655329;23;20073;-80
2022/05/02 23:27:06;;;;;;;9.95;5.57;;;;;;;15.10;58.91;97699.03;12712054;23;20486;-80
2022/05/02 23:32:45;;;;;;;5.93;5.32;;;;;;;15.06;59.38;97699.56;12767250;23;20057;-79
2022/05/02 23:38:10;;;;;;;7.75;5.82;;;;;;;15.05;59.25;97694.56;12753387;23;20017;-80
2022/05/02 23:43:37;;;;;;;7.85;5.80;;;;;;;15.03;59.32;97700.09;12732688;23;20021;-79
2022/05/02 23:49:22;;;;;;;6.28;5.28;;;;;;;14.91;59.88;97699.50;12754546;23;20010;-79
2022/05/02 23:55:04;;;;;;;7.03;5.53;;;;;;;14.80;59.71;97693.38;12642970;23;20014;-80
